• Join FlightAware (Why Join?)
  • Login
  • US Flag 
01:00PM EDT


 

Airport Tracker/Info


-or-


 

Live Flight TrackerFlight Track Log ✈ USC105 ✈ 23-Apr-2013 ✈ KDPA - KYIP

Flight Track Log - Related Links

Times and Time Zones

All times are in EDT time to prevent confusion due to time zone crossing. See the USC105 flight status page for this flight to view local times or setup timezone preferences in your user account.

Time Position Orientation Groundspeed Altitude Reporting Facility
EDT Latitude Longitude Course Direction KTS MPH feet Rate Location/Type
05:22AM 41.8667 -88.2333 153° Southeast 119 137 2,300  Level Chicago TRACON
05:23AM 41.8500 -88.2000 124° Southeast 117 135 3,500 1,080 Climbing Chicago TRACON
05:24AM 41.8333 -88.1500 114° Southeast 147 169 4,500 720 Climbing Chicago TRACON
05:25AM 41.8500 -88.1000 66° East 178 205 5,000 540 Climbing Chicago TRACON
05:26AM 41.8667 -88.0333 71° East 181 208 5,600 540 Climbing Chicago TRACON
05:27AM 41.8833 -87.9667 71° East 190 219 6,100 420 Climbing Chicago TRACON
05:28AM 41.9439 -87.8369 153° Southeast  Level Estimated
05:28AM 41.8833 -87.9000 90° East 195 224 6,500  Level Chicago TRACON
05:29AM 41.9000 -87.8167 75° East 196 226 6,800 180 Climbing Chicago TRACON
05:30AM 41.9167 -87.7500 71° East 207 238 6,900  Climbing Chicago TRACON
05:31AM 41.9333 -87.6667 75° East 226 260 6,900  Level Chicago TRACON
05:32AM 41.9500 -87.6000 71° East 225 259 6,900  Level Chicago TRACON
05:33AM 41.9667 -87.5167 75° East 218 251 6,900  Level Chicago TRACON
05:34AM 41.9833 -87.4333 75° East 213 245 6,900  Level Chicago TRACON
05:36AM 41.9867 -87.3475 87° East 214 246 6,900  Level Chicago Center
05:37AM 41.9936 -87.2678 83° East 215 247 6,900  Level Chicago Center
05:38AM 42.0008 -87.1733 84° East 213 245 6,900  Level Chicago Center
05:39AM 42.0072 -87.0944 84° East 212 244 6,900  Level Chicago Center
05:40AM 42.0136 -87.0164 84° East 211 243 7,000  Climbing Chicago Center
05:41AM 42.0189 -86.9403 85° East 208 239 7,000  Level Chicago Center
05:42AM 42.0261 -86.8636 83° East 207 238 7,000  Level Chicago Center
05:43AM 42.0306 -86.7875 85° East 205 236 7,000  Level Chicago Center
05:44AM 42.0381 -86.7119 82° East 204 235 7,000  Level Chicago Center
05:45AM 42.0425 -86.6447 85° East 208 239 7,000  Level Chicago Center
05:46AM 42.0486 -86.5675 84° East 209 241 7,000  Level Chicago Center
05:47AM 42.0550 -86.4747 85° East 208 239 7,000  Level Chicago Center
05:48AM 42.0622 -86.3956 83° East 211 243 7,000  Level Chicago Center
05:49AM 42.0675 -86.3175 85° East 211 243 7,000  Level Chicago Center
05:50AM 42.0736 -86.2378 84° East 213 245 7,000  Level Chicago Center
05:51AM 42.0794 -86.1586 84° East 214 246 7,000  Level Chicago Center
05:52AM 42.0856 -86.0775 84° East 217 250 7,000  Level Chicago Center
05:53AM 42.0903 -85.9981 85° East 215 247 7,000  Level Chicago Center
05:54AM 42.0972 -85.9194 83° East 212 244 7,000  Level Chicago Center
05:55AM 42.1022 -85.8400 85° East 213 245 7,000  Level Chicago Center
05:56AM 42.1083 -85.7619 84° East 211 243 7,000  Level Chicago Center
05:57AM 42.1128 -85.6828 86° East 212 244 7,000  Level Chicago Center
05:58AM 42.1192 -85.6039 84° East 211 243 7,000  Level Chicago Center
05:59AM 42.1242 -85.5242 85° East 213 245 7,000  Level Chicago Center
06:00AM 42.1292 -85.4456 85° East 211 243 7,000  Level Chicago Center
06:01AM 42.1344 -85.3675 85° East 211 243 7,000  Level Chicago Center
06:02AM 42.1392 -85.2878 85° East 212 244 7,000  Level Chicago Center
06:03AM 42.1442 -85.2097 85° East 210 242 7,000  Level Chicago Center
06:04AM 42.1492 -85.1311 85° East 209 241 7,000  Level Chicago Center
06:05AM 42.1547 -85.0531 84° East 209 241 7,000  Level Chicago Center
06:06AM 42.1597 -84.9753 85° East 209 241 7,000  Level Chicago Center
06:07AM 42.1644 -84.8967 85° East 210 242 7,000  Level Chicago Center
06:08AM 42.1689 -84.8189 86° East 208 239 7,000  Level Chicago Center
06:09AM 42.1742 -84.7406 85° East 209 241 7,000  Level Chicago Center
06:10AM 42.1786 -84.6619 86° East 210 242 7,000  Level Chicago Center
06:11AM 42.1839 -84.5844 85° East 208 239 7,000 60 Level Chicago Center
06:11AM 42.1847 -84.5528 88° East 208 239 7,100 120 Climbing FAA TRACON SMA TRACON (SMA)
06:12AM 42.1861 -84.5292 85° East 207 238 7,100  Level FAA TRACON SMA TRACON (SMA)
06:12AM 42.1872 -84.4992 87° East 208 239 7,100  Level FAA TRACON SMA TRACON (SMA)
06:12AM 42.1881 -84.4753 87° East 207 238 7,100  Level FAA TRACON SMA TRACON (SMA)
06:13AM 42.1897 -84.4508 85° East 206 237 7,100  Level FAA TRACON SMA TRACON (SMA)
06:13AM 42.1914 -84.4222 85° East 206 237 7,100  Level FAA TRACON SMA TRACON (SMA)
06:13AM 42.1933 -84.3986 84° East 205 236 7,100  Level FAA TRACON SMA TRACON (SMA)
06:14AM 42.1944 -84.3750 86° East 205 236 7,100  Level FAA TRACON SMA TRACON (SMA)
06:14AM 42.1964 -84.3461 85° East 204 235 7,100  Level FAA TRACON SMA TRACON (SMA)
06:14AM 42.1978 -84.3228 85° East 203 234 7,100  Level FAA TRACON SMA TRACON (SMA)
06:15AM 42.1986 -84.2994 87° East 203 234 7,100 -180 Level FAA TRACON SMA TRACON (SMA)
06:15AM 42.2003 -84.2703 86° East 203 234 7,000 -180 Descending FAA TRACON SMA TRACON (SMA)
06:15AM 42.2014 -84.2467 86° East 203 234 7,000  Level FAA TRACON SMA TRACON (SMA)
06:16AM 42.2031 -84.2231 85° East 204 235 7,000  Level FAA TRACON SMA TRACON (SMA)
06:16AM 42.2053 -84.1944 84° East 202 232 7,000  Level FAA TRACON SMA TRACON (SMA)
06:16AM 42.2061 -84.1717 87° East 199 229 7,000  Level FAA TRACON SMA TRACON (SMA)
06:17AM 42.2072 -84.1494 86° East 196 226 7,000  Level FAA TRACON SMA TRACON (SMA)
06:17AM 42.2086 -84.1217 86° East 193 222 7,000  Level FAA TRACON SMA TRACON (SMA)
06:17AM 42.2097 -84.0997 86° East 192 221 7,000  Level FAA TRACON SMA TRACON (SMA)
06:18AM 42.2111 -84.0778 85° East 191 220 7,000 -480 Level FAA TRACON SMA TRACON (SMA)
06:18AM 42.2131 -84.0503 85° East 192 221 6,700 -780 Descending FAA TRACON SMA TRACON (SMA)
06:18AM 42.2142 -84.0275 86° East 194 223 6,500 -480 Descending FAA TRACON SMA TRACON (SMA)
06:19AM 42.2150 -84.0044 87° East 197 227 6,400 -480 Descending FAA TRACON SMA TRACON (SMA)
06:19AM 42.2167 -83.9756 86° East 199 229 6,200 -480 Descending FAA TRACON SMA TRACON (SMA)
06:19AM 42.2183 -83.9528 84° East 199 229 6,100 -480 Descending FAA TRACON SMA TRACON (SMA)
06:20AM 42.2192 -83.9300 87° East 199 229 5,900 -900 Descending FAA TRACON SMA TRACON (SMA)
06:20AM 42.2208 -83.9011 86° East 200 230 5,500 -1,260 Descending FAA TRACON SMA TRACON (SMA)
06:20AM 42.2222 -83.8772 86° East 204 235 5,100 -1,080 Descending FAA TRACON SMA TRACON (SMA)
06:21AM 42.2233 -83.8531 86° East 208 239 4,800 -900 Descending FAA TRACON SMA TRACON (SMA)
06:21AM 42.2261 -83.8231 83° East 208 239 4,500 -900 Descending FAA TRACON SMA TRACON (SMA)
06:21AM 42.2289 -83.7994 81° East 207 238 4,200 -1,200 Descending FAA TRACON SMA TRACON (SMA)
06:22AM 42.2331 -83.7767 76° East 206 237 3,700 -1,740 Descending FAA TRACON SMA TRACON (SMA)
06:22AM 42.2381 -83.7475 77° East 210 242 3,100 -1,380 Descending FAA TRACON SMA TRACON (SMA)
06:22AM 42.2406 -83.7236 82° East 208 239 2,800 -780 Descending FAA TRACON SMA TRACON (SMA)
06:23AM 42.2414 -83.7014 87° East 191 220 2,600 -480 Descending FAA TRACON SMA TRACON (SMA)
06:23AM 42.2419 -83.6753 88° East 178 205 2,500 -180 Descending FAA TRACON SMA TRACON (SMA)
06:23AM 42.2425 -83.6558 88° East 168 193 2,500 -180 Level FAA TRACON SMA TRACON (SMA)
06:24AM 42.2428 -83.6364 89° East 165 190 2,400 -600 Descending FAA TRACON SMA TRACON (SMA)
06:24AM 42.2425 -83.6144 91° East 154 177 2,100 -960 Descending FAA TRACON SMA TRACON (SMA)
06:24AM 42.2431 -83.5983 87° East 144 166 1,800 -900 Descending FAA TRACON SMA TRACON (SMA)
06:25AM 42.2433 -83.5831 89° East 136 157 1,500 -780 Descending FAA TRACON SMA TRACON (SMA)
06:25AM 42.2433 -83.5658 90° East 120 138 1,300 -660 Descending FAA TRACON SMA TRACON (SMA)
06:25AM 42.2436 -83.5522 88° East 115 132 1,100 -600 Descending FAA TRACON SMA TRACON (SMA)
06:26AM 42.2439 -83.5458 87° East 115 132 900 -240 Descending FAA TRACON SMA TRACON (SMA)
06:26AM 42.2439 -83.5458 246° West 115 132 900  Level FAA TRACON SMA TRACON (SMA)
06:28AM 42.2393 -83.5310 90° East  Level Estimated
06:35AM 42.2393 -83.5310 90° East  Level Estimated